| time (UTC) | temp F | wind direction | speed MPH | gust MPH | rain 1hr in | rain 24hr in | rain mn in | humidity % | barometer mb |
| 20260510043035 | 48 | 355 | 6.0 | 12.0 | 0.00 | 0.00 | 0.00 | 53 | 1009.8 |
| 20260510041529 | 49 | 333 | 4.0 | 11.0 | 0.00 | 0.00 | 0.00 | 57 | 1009.6 |
| 20260510040030 | 50 | 360 | 7.0 | 16.0 | 0.00 | 0.00 | 0.00 | 56 | 1009.2 |
| 20260510034532 | 51 | 329 | 8.0 | 12.0 | 0.00 | 0.00 | 0.00 | 53 | 1008.9 |
| 20260510033021 | 51 | 338 | 7.0 | 13.0 | 0.00 | 0.00 | 0.00 | 55 | 1008.7 |
| 20260510031520 | 50 | 337 | 3.0 | 8.0 | 0.00 | 0.00 | 0.00 | 58 | 1008.3 |
| 20260510030016 | 50 | 22 | 4.0 | 8.0 | 0.00 | 0.00 | 0.00 | 60 | 1008.0 |
| 20260510024515 | 51 | 340 | 2.0 | 5.0 | 0.00 | 0.00 | 0.00 | 58 | 1007.8 |
| 20260510023012 | 51 | 355 | 3.0 | 5.0 | 0.00 | 0.00 | 0.00 | 57 | 1007.5 |
| 20260510021523 | 52 | 327 | 2.0 | 8.0 | 0.00 | 0.00 | 0.00 | 56 | 1007.2 |
| 20260510020008 | 53 | 333 | 4.0 | 11.0 | 0.00 | 0.00 | 0.00 | 56 | 1007.0 |
| 20260510014507 | 54 | 336 | 7.0 | 13.0 | 0.00 | 0.00 | 0.00 | 55 | 1006.6 |
| 20260510013000 | 54 | 312 | 8.0 | 13.0 | 0.00 | 0.00 | 0.00 | 56 | 1006.2 |
| 20260510011558 | 55 | 5 | 7.0 | 14.0 | 0.00 | 0.00 | 0.00 | 56 | 1005.6 |
| 20260510010058 | 56 | 346 | 8.0 | 14.0 | 0.00 | 0.00 | 0.00 | 51 | 1005.3 |
| 20260510004558 | 58 | 328 | 9.0 | 14.0 | 0.00 | 0.00 | 0.00 | 46 | 1005.0 |
| 20260510003100 | 59 | 316 | 4.0 | 12.0 | 0.00 | 0.00 | 0.00 | 46 | 1004.6 |
| 20260510001555 | 59 | 321 | 3.0 | 10.0 | 0.00 | 0.00 | 0.00 | 46 | 1004.3 |
| 20260510000058 | 60 | 281 | 3.0 | 16.0 | 0.00 | 0.00 | 0.00 | 44 | 1003.8 |
| 20260509234555 | 61 | 279 | 4.0 | 10.0 | 0.00 | 0.00 | 0.00 | 43 | 1003.5 |
| 20260509233054 | 63 | 280 | 2.0 | 13.0 | 0.00 | 0.00 | 0.00 | 40 | 1003.0 |
| 20260509231551 | 64 | 305 | 3.0 | 16.0 | 0.00 | 0.00 | 0.00 | 38 | 1002.5 |
| 20260509230051 | 64 | 296 | 10.0 | 22.0 | 0.00 | 0.00 | 0.00 | 37 | 1002.3 |
| 20260509224558 | 64 | 279 | 14.0 | 25.0 | 0.00 | 0.00 | 0.00 | 37 | 1002.1 |
| 20260509223051 | 65 | 281 | 13.0 | 24.0 | 0.00 | 0.00 | 0.00 | 40 | 1001.9 |
| 20260509221602 | 64 | 284 | 9.0 | 18.0 | 0.00 | 0.00 | 0.00 | 39 | 1001.7 |
| 20260509220049 | 66 | 262 | 11.0 | 24.0 | 0.00 | 0.00 | 0.00 | 38 | 1001.4 |
| 20260509214553 | 67 | 271 | 8.0 | 26.0 | 0.00 | 0.00 | 0.00 | 38 | 1001.1 |
| 20260509213047 | 65 | 241 | 6.0 | 21.0 | 0.00 | 0.00 | 0.00 | 39 | 1000.9 |
| 20260509211547 | 65 | 299 | 9.0 | 20.0 | 0.00 | 0.00 | 0.00 | 39 | 1000.8 |
| 20260509210052 | 66 | 266 | 9.0 | 24.0 | 0.00 | 0.00 | 0.00 | 39 | 1000.7 |
| 20260509204547 | 67 | 229 | 11.0 | 24.0 | 0.00 | 0.00 | 0.00 | 40 | 1000.5 |
| 20260509203042 | 65 | 262 | 15.0 | 27.0 | 0.00 | 0.00 | 0.00 | 41 | 1000.5 |
| 20260509201549 | 66 | 256 | 8.0 | 21.0 | 0.00 | 0.00 | 0.00 | 43 | 1000.6 |
| 20260509200051 | 66 | 290 | 9.0 | 23.0 | 0.00 | 0.00 | 0.00 | 43 | 1000.6 |
| 20260509194540 | 66 | 231 | 14.0 | 29.0 | 0.00 | 0.00 | 0.00 | 45 | 1000.7 |
| 20260509193038 | 65 | 254 | 15.0 | 34.0 | 0.00 | 0.00 | 0.00 | 45 | 1000.9 |
| 20260509191538 | 63 | 291 | 17.0 | 27.0 | 0.00 | 0.00 | 0.00 | 48 | 1000.8 |
| 20260509190038 | 63 | 241 | 14.0 | 26.0 | 0.00 | 0.00 | 0.00 | 50 | 1000.9 |
| 20260509184535 | 62 | 242 | 16.0 | 24.0 | 0.00 | 0.00 | 0.00 | 52 | 1000.9 |
| 20260509183035 | 61 | 290 | 11.0 | 19.0 | 0.00 | 0.00 | 0.00 | 55 | 1001.1 |
| 20260509181538 | 60 | 240 | 9.0 | 20.0 | 0.00 | 0.00 | 0.00 | 61 | 1001.1 |
| 20260509180034 | 59 | 236 | 8.0 | 30.0 | 0.00 | 0.00 | 0.00 | 64 | 1001.6 |
| 20260509174533 | 63 | 293 | 16.0 | 29.0 | 0.00 | 0.00 | 0.00 | 54 | 1000.9 |
| 20260509173032 | 64 | 240 | 7.0 | 25.0 | 0.00 | 0.00 | 0.00 | 55 | 1000.5 |
| 20260509171538 | 65 | 259 | 16.0 | 26.0 | 0.00 | 0.00 | 0.00 | 51 | 1000.0 |
| 20260509170032 | 66 | 246 | 10.0 | 27.0 | 0.00 | 0.00 | 0.00 | 54 | 1000.0 |
| 20260509164528 | 65 | 248 | 18.0 | 30.0 | 0.00 | 0.00 | 0.00 | 55 | 1000.0 |
| 20260509163028 | 65 | 236 | 21.0 | 30.0 | 0.00 | 0.00 | 0.00 | 54 | 1000.0 |
| 20260509161526 | 66 | 259 | 14.0 | 24.0 | 0.00 | 0.00 | 0.00 | 56 | 999.8 |
| 20260509160024 | 65 | 248 | 12.0 | 24.0 | 0.00 | 0.00 | 0.00 | 59 | 999.7 |
| 20260509154522 | 64 | 211 | 14.0 | 25.0 | 0.00 | 0.00 | 0.00 | 61 | 999.5 |
| 20260509153018 | 63 | 208 | 13.0 | 25.0 | 0.00 | 0.00 | 0.00 | 64 | 999.7 |
| 20260509151516 | 62 | 211 | 11.0 | 22.0 | 0.00 | 0.00 | 0.00 | 66 | 999.9 |
| 20260509150018 | 61 | 196 | 14.0 | 25.0 | 0.00 | 0.00 | 0.00 | 70 | 999.9 |
| 20260509144610 | 60 | 194 | 7.0 | 17.0 | 0.00 | 0.00 | 0.00 | 75 | 1000.0 |
| 20260509143007 | 58 | 192 | 4.0 | 14.0 | 0.00 | 0.00 | 0.00 | 76 | 1000.5 |
| 20260509141509 | 58 | 172 | 7.0 | 15.0 | 0.00 | 0.00 | 0.00 | 74 | 1000.4 |
| 20260509140106 | 58 | 196 | 5.0 | 14.0 | 0.00 | 0.00 | 0.00 | 73 | 1000.5 |
| 20260509134509 | 58 | 180 | 5.0 | 14.0 | 0.00 | 0.00 | 0.00 | 70 | 1000.4 |
| 20260509133100 | 57 | 188 | 7.0 | 19.0 | 0.00 | 0.00 | 0.00 | 72 | 1000.7 |
| 20260509131556 | 56 | 235 | 8.0 | 18.0 | 0.00 | 0.00 | 0.00 | 77 | 1001.2 |
| 20260509130053 | 56 | 215 | 11.0 | 19.0 | 0.00 | 0.00 | 0.00 | 77 | 1001.6 |
| 20260509124550 | 55 | 205 | 17.0 | 28.0 | 0.00 | 0.00 | 0.00 | 78 | 1001.8 |
| 20260509123050 | 55 | 234 | 11.0 | 15.0 | 0.00 | 0.00 | 0.00 | 79 | 1002.3 |
| 20260509121550 | 54 | 197 | 7.0 | 10.0 | 0.00 | 0.00 | 0.00 | 81 | 1001.7 |
| 20260509120043 | 53 | 224 | 5.0 | 8.0 | 0.00 | 0.00 | 0.00 | 84 | 1001.8 |
| 20260509114544 | 51 | 182 | 2.0 | 6.0 | 0.00 | 0.00 | 0.00 | 84 | 1001.8 |
| 20260509113037 | 51 | 199 | 3.0 | 7.0 | 0.00 | 0.00 | 0.00 | 85 | 1002.1 |
| 20260509111535 | 50 | 160 | 3.0 | 7.0 | 0.00 | 0.00 | 0.00 | 84 | 1002.1 |
| 20260509110032 | 49 | 211 | 2.0 | 5.0 | 0.00 | 0.00 | 0.00 | 84 | 1002.4 |
| 20260509104532 | 48 | 215 | 1.0 | 5.0 | 0.00 | 0.00 | 0.00 | 82 | 1002.4 |
| 20260509103030 | 47 | 215 | 1.0 | 4.0 | 0.00 | 0.00 | 0.00 | 80 | 1002.5 |
| 20260509101535 | 47 | 215 | 1.0 | 4.0 | 0.00 | 0.00 | 0.00 | 78 | 1002.8 |
| 20260509100026 | 47 | 215 | 1.0 | 3.0 | 0.00 | 0.00 | 0.00 | 75 | 1003.0 |
| 20260509094523 | 47 | 216 | 1.0 | 3.0 | 0.00 | 0.00 | 0.00 | 71 | 1003.0 |
| 20260509093020 | 46 | 216 | 1.0 | 4.0 | 0.00 | 0.00 | 0.00 | 68 | 1003.3 |
| 20260509091520 | 46 | 223 | 1.0 | 3.0 | 0.00 | 0.00 | 0.00 | 64 | 1003.7 |
| 20260509090014 | 46 | 223 | 1.0 | 3.0 | 0.00 | 0.00 | 0.00 | 60 | 1003.8 |
| 20260509084516 | 45 | 223 | 1.0 | 4.0 | 0.00 | 0.00 | 0.00 | 57 | 1004.0 |
| 20260509083018 | 45 | 223 | 1.0 | 3.0 | 0.00 | 0.00 | 0.00 | 56 | 1004.0 |
| 20260509081512 | 45 | 223 | 0.0 | 3.0 | 0.00 | 0.00 | 0.00 | 56 | 1003.9 |
| 20260509080011 | 45 | 223 | 1.0 | 3.0 | 0.00 | 0.00 | 0.00 | 56 | 1003.9 |
| 20260509074510 | 45 | 223 | 1.0 | 3.0 | 0.00 | 0.00 | 0.00 | 60 | 1003.9 |
| 20260509073009 | 46 | 224 | 2.0 | 4.0 | 0.00 | 0.00 | 0.00 | 58 | 1004.0 |
| 20260509071505 | 46 | 224 | 1.0 | 3.0 | 0.00 | 0.00 | 0.00 | 59 | 1004.3 |
| 20260509070003 | 46 | 224 | 2.0 | 4.0 | 0.00 | 0.00 | 0.00 | 59 | 1004.4 |
| 20260509064503 | 46 | 224 | 1.0 | 3.0 | 0.00 | 0.00 | 0.00 | 59 | 1004.5 |
| 20260509063059 | 46 | 224 | 1.0 | 3.0 | 0.00 | 0.00 | 0.00 | 59 | 1004.5 |
| 20260509061622 | 47 | 224 | 1.0 | 3.0 | 0.00 | 0.00 | 0.00 | 57 | 1004.6 |
| 20260509060056 | 47 | 224 | 0.0 | 2.0 | 0.00 | 0.00 | 0.00 | 58 | 1004.8 |
| 20260509054555 | 47 | 224 | 1.0 | 2.0 | 0.00 | 0.00 | 0.00 | 55 | 1005.0 |
| 20260509053051 | 48 | 224 | 1.0 | 3.0 | 0.00 | 0.00 | 0.00 | 56 | 1005.0 |
| 20260509051549 | 48 | 224 | 2.0 | 3.0 | 0.00 | 0.00 | 0.00 | 54 | 1005.0 |
| 20260509050044 | 49 | 224 | 0.0 | 2.0 | 0.00 | 0.00 | 0.00 | 52 | 1005.2 |
| 20260509044542 | 49 | 224 | 0.0 | 1.0 | 0.00 | 0.00 | 0.00 | 52 | 1005.3 |